METAR Data
IDs: Format: Raw Decoded Include TAF

Data at: 1630 UTC 21 Sep 2018

KGAO 211615Z AUTO 09004KT 10SM SCT025 31/25 A3005 RMK AO2 T03130245
KGAO 211555Z AUTO 09004KT 5SM HZ CLR 31/25 A3005 RMK AO2 T03090249
KGAO 211535Z AUTO 06003KT 5SM HZ SCT025 SCT033 SCT060 30/25 A3005 RMK AO2 T02950245
KGAO 211515Z AUTO 06004KT 7SM BKN024 BKN034 OVC120 29/24 A3005 RMK AO2 T02900240
KGAO 211455Z AUTO 00000KT 10SM SCT024 BKN032 BKN045 29/24 A3006 RMK AO2 T02940242
KGAO 211435Z AUTO 00000KT 10SM SCT024 29/24 A3005 RMK AO2 T02920244
KGAO 211415Z AUTO 00000KT 10SM SCT022 SCT027 29/24 A3005 RMK AO2 T02890238
KGAO 211355Z AUTO 03004KT 10SM CLR 30/24 A3005 RMK AO2 T02970241
KGAO 211335Z AUTO 00000KT 10SM CLR 30/26 A3005 RMK AO2 T02980260
KGAO 211315Z AUTO 00000KT 10SM SCT022 SCT034 SCT050 28/25 A3005 RMK AO2 T02800254
KGAO 211255Z AUTO 05003KT 5SM BR SCT024 SCT034 SCT050 27/25 A3005 RMK AO2 T02720252
KGAO 211235Z AUTO 00000KT 5SM BR SCT075 SCT085 SCT120 26/24 A3004 RMK AO2 T02590238
KGAO 211215Z AUTO 00000KT 5SM BR SCT022 BKN075 OVC120 25/23 A3003 RMK AO2 T02540234
KGAO 211155Z AUTO 11003KT 3SM BR SCT022 SCT035 BKN041 25/22 A3003 RMK AO2 T02450223 10267 20243
KGAO 211135Z AUTO 00000KT 4SM BR CLR 25/22 A3003 RMK AO2 T02450223
KGAO 211115Z AUTO 00000KT 5SM BR CLR 25/23 A3002 RMK AO2 T02490226
KGAO 211055Z AUTO 00000KT 10SM CLR 25/23 A3001 RMK AO2 T02520231
KGAO 211035Z AUTO 00000KT 7SM SCT023 SCT035 25/23 A3001 RMK AO2 T02510230
KGAO 211015Z AUTO 00000KT 10SM SCT023 25/23 A3000 RMK AO2 T02480225
KGAO 210955Z AUTO 00000KT 10SM SCT021 25/23 A3000 RMK AO2 T02520229
KGAO 210935Z AUTO 00000KT 10SM CLR 25/23 A3000 RMK AO2 T02530228
KGAO 210915Z AUTO 11003KT 10SM CLR 25/23 A3000 RMK AO2 T02520227
KGAO 210855Z AUTO 00000KT 10SM CLR 25/22 A3000 RMK AO2 T02540222
KGAO 210835Z AUTO 00000KT 10SM SCT023 25/22 A3000 RMK AO2 T02530216
KGAO 210815Z AUTO 00000KT 10SM CLR 26/22 A3000 RMK AO2 T02560220
KGAO 210755Z AUTO 00000KT 10SM CLR 26/23 A3000 RMK AO2 T02610225
KGAO 210735Z AUTO 15003KT 10SM CLR 26/23 A3001 RMK AO2 T02630227
KGAO 210715Z AUTO 00000KT 10SM CLR 27/23 A3001 RMK AO2 T02660231
KGAO 210655Z AUTO 15004KT 10SM CLR 27/23 A3001 RMK AO2 T02670232
KGAO 210635Z AUTO 16004KT 10SM SCT022 SCT027 SCT034 27/23 A3002 RMK AO2 T02660231
KGAO 210615Z AUTO 00000KT 10SM SCT020 SCT029 SCT034 27/23 A3002 RMK AO2 T02670230
KGAO 210555Z AUTO 00000KT 10SM BKN020 BKN029 BKN034 27/23 A3002 RMK AO2 T02660229 10294 20265 403520235
KGAO 210535Z AUTO 15003KT 10SM SCT022 27/23 A3002 RMK AO2 T02660226
KGAO 210515Z AUTO 00000KT 10SM CLR 27/23 A3002 RMK AO2 T02680230
KGAO 210455Z AUTO 15004KT 10SM CLR 27/22 A3003 RMK AO2 T02650224
KGAO 210435Z AUTO 00000KT 10SM CLR 27/23 A3003 RMK AO2 T02680227
KGAO 210415Z AUTO 15003KT 10SM CLR 27/23 A3002 RMK AO2 T02680226
KGAO 210355Z AUTO 16003KT 10SM CLR 27/23 A3003 RMK AO2 T02700226
KGAO 210335Z AUTO 14004KT 10SM CLR 27/23 A3003 RMK AO2 T02690226
KGAO 210315Z AUTO 14004KT 10SM CLR 27/23 A3003 RMK AO2 T02700225
KGAO 210255Z AUTO 15004KT 10SM CLR 27/23 A3002 RMK AO2 T02680225
KGAO 210235Z AUTO 16004KT 10SM CLR 27/22 A3002 RMK AO2 T02670222
KGAO 210215Z AUTO 15004KT 10SM CLR 27/22 A3001 RMK AO2 T02650218
KGAO 210155Z AUTO 00000KT 10SM CLR 27/22 A3001 RMK AO2 T02650215
KGAO 210135Z AUTO 00000KT 10SM CLR 27/21 A3000 RMK AO2 T02670212
KGAO 210115Z AUTO 15004KT 10SM CLR 27/22 A2999 RMK AO2 T02680215
KGAO 210055Z AUTO 15003KT 10SM CLR 27/21 A2999 RMK AO2 T02700211
KGAO 210035Z AUTO 13003KT 10SM CLR 27/21 A2998 RMK AO2 T02740210
KGAO 210015Z AUTO 14004KT 10SM CLR 28/21 A2998 RMK AO2 T02810208
KGAO 202355Z AUTO 15003KT 10SM CLR 30/21 A2998 RMK AO2 T02960207 10352 20296
KGAO 202335Z AUTO 00000KT 10SM CLR 31/21 A2998 RMK AO2 T03100212
KGAO 202315Z AUTO 15003KT 10SM CLR 32/22 A2998 RMK AO2 T03200216
KGAO 202255Z AUTO 15004KT 10SM SCT031 32/22 A2998 RMK AO2 T03240217
KGAO 202235Z AUTO 14005KT 10SM SCT031 33/22 A2997 RMK AO2 T03270220
KGAO 202215Z AUTO 14004KT 10SM CLR 33/22 A2997 RMK AO2 T03300220
KGAO 202155Z AUTO 15007KT 10SM SCT033 34/22 A2997 RMK AO2 T03350221
KGAO 202135Z AUTO 17007KT 10SM SCT031 34/23 A2997 RMK AO2 T03380228
KGAO 202115Z AUTO 15006KT 10SM CLR 34/22 A2997 RMK AO2 T03400222
KGAO 202055Z AUTO 14005KT 10SM CLR 34/22 A2997 RMK AO2 T03410221
KGAO 202035Z AUTO 14007KT 10SM CLR 34/22 A2998 RMK AO2 T03400220
KGAO 202015Z AUTO 14005KT 10SM CLR 35/22 A2998 RMK AO2 T03450219
KGAO 201955Z AUTO 14006KT 10SM SCT031 SCT038 SCT045 35/22 A2999 RMK AO2 LTG DSNT NW T03500219
KGAO 201935Z AUTO 14005KT 10SM SCT031 BKN038 BKN045 35/23 A3000 RMK AO2 T03500228
KGAO 201915Z AUTO 14006KT 10SM SCT033 35/22 A3000 RMK AO2 T03510221
KGAO 201855Z AUTO 14004KT 10SM SCT033 SCT044 SCT120 35/23 A3000 RMK AO2 T03460229
KGAO 201835Z AUTO 15004KT 10SM SCT033 SCT044 BKN110 33/23 A3001 RMK AO2 T03320229
KGAO 201815Z AUTO 17006KT 10SM SCT033 SCT120 34/24 A3001 RMK AO2 T03420238
KGAO 201755Z AUTO 18007KT 10SM SCT035 SCT120 33/23 A3001 RMK AO2 T03280234 10346 20245
KGAO 201735Z AUTO 16004KT 10SM SCT035 34/22 A3003 RMK AO2 T03370216
KGAO 201715Z AUTO 14005KT 10SM SCT033 SCT043 SCT048 34/22 A3003 RMK AO2 T03420223
KGAO 201655Z AUTO 13006KT 10SM SCT029 SCT044 BKN049 34/24 A3003 RMK AO2 T03380237
KGAO 201635Z AUTO 06003KT 10SM SCT025 SCT031 SCT039 34/23 A3004 RMK AO2 T03400232
KGAO 201615Z AUTO 00000KT 10SM SCT026 SCT031 SCT039 34/23 A3004 RMK AO2 T03390232
KGAO 201555Z AUTO 07003KT 10SM CLR 34/24 A3004 RMK AO2 T03400237
KGAO 201535Z AUTO 13003KT 10SM SCT023 SCT060 SCT070 34/24 A3004 RMK AO2 T03370244
KGAO 201515Z AUTO 14004KT 10SM SCT019 SCT025 BKN060 33/26 A3004 RMK AO2 T03310258
KGAO 201455Z AUTO 00000KT 10SM BKN019 BKN026 BKN033 32/27 A3003 RMK AO2 T03230274
KGAO 201435Z AUTO 00000KT 10SM SCT017 SCT023 32/27 A3003 RMK AO2 T03150268
KGAO 201415Z AUTO 00000KT 10SM SCT011 31/27 A3002 RMK AO2 T03100269
KGAO 201355Z AUTO 00000KT 10SM CLR 30/27 A3002 RMK AO2 T02970267
KGAO 201335Z AUTO 00000KT 10SM CLR 29/26 A3001 RMK AO2 T02850264
KGAO 201315Z AUTO 00000KT 10SM CLR 27/25 A3001 RMK AO2 T02700250
KGAO 201255Z AUTO 00000KT 5SM BR CLR 26/24 A3000 RMK AO2 T02560236
KGAO 201235Z AUTO 00000KT 3SM BR CLR 25/23 A3000 RMK AO2 T02500230
KGAO 201215Z AUTO 00000KT 3SM BR SCT120 25/23 A3000 RMK AO2 T02460225
KGAO 201155Z AUTO 00000KT 2 1/2SM BR SCT025 SCT085 OVC120 25/23 A2999 RMK AO2 T02460225 10248 20235
KGAO 201135Z AUTO 00000KT 3SM BR SCT025 BKN085 OVC110 25/23 A2998 RMK AO2 T02460225
KGAO 201115Z AUTO 00000KT 4SM -RA SCT085 OVC120 24/22 A2998 RMK AO2 T02420222
KGAO 201055Z AUTO 00000KT 4SM BR SCT085 SCT120 24/22 A2998 RMK AO2 T02380217
KGAO 201035Z AUTO 00000KT 2 1/2SM BR CLR 24/22 A2998 RMK AO2 T02400220
KGAO 201015Z AUTO 00000KT 4SM BR CLR 24/22 A2997 RMK AO2 T02400220
KGAO 200955Z AUTO 00000KT 4SM BR CLR 24/22 A2997 RMK AO2 LTG DSNT SW T02360215
KGAO 200935Z AUTO 00000KT 4SM BR CLR 24/22 A2997 RMK AO2 T02380217
KGAO 200915Z AUTO 00000KT 5SM BR CLR 24/22 A2997 RMK AO2 T02400218
KGAO 200855Z AUTO 00000KT 10SM CLR 24/21 A2997 RMK AO2 T02360213
KGAO 200835Z AUTO 00000KT 5SM HZ CLR 24/21 A2996 RMK AO2 T02360213
KGAO 200815Z AUTO 00000KT 7SM CLR 24/22 A2996 RMK AO2 T02400216
KGAO 200755Z AUTO 00000KT 10SM SCT080 24/22 A2997 RMK AO2 T02420218
KGAO 200735Z AUTO 00000KT 10SM SCT022 SCT045 OVC080 25/22 A2996 RMK AO2 T02460222
KGAO 200715Z AUTO 00000KT 10SM -RA SCT022 SCT039 BKN055 25/23 A2997 RMK AO2 T02470225
KGAO 200655Z AUTO 00000KT 5SM BR SCT090 25/23 A2996 RMK AO2 T02480227
KGAO 200635Z AUTO 00000KT 3SM BR CLR 25/22 A2996 RMK AO2 T02450222
KGAO 200615Z AUTO 35003KT 3SM BR CLR 25/23 A2996 RMK AO2 T02460225
KGAO 200555Z AUTO 00000KT 5SM BR CLR 25/22 A2997 RMK AO2 T02450223 10295 20242 403550235
KGAO 200535Z AUTO 00000KT 5SM BR CLR 25/22 A2997 RMK AO2 T02450222
KGAO 200515Z AUTO 00000KT 4SM BR CLR 25/23 A2997 RMK AO2 T02460225
KGAO 200455Z AUTO 00000KT 3SM BR CLR 25/22 A2997 RMK AO2 T02470223
KGAO 200435Z AUTO 00000KT 3SM BR CLR 25/22 A2997 RMK AO2 T02450220